Strona główna
METAR-TAF:

METAR-TAF

Lotnisko :

Port lotniczy Kununurra

Kununurra, Australia

Szerokość geograficzna: 15-46S, Długość geograficzna: 128-42E, wysokość: 44 m

Aktualna obserwacja pogody

Raport powstał 34 minut temu, godzina 08:30 UTC
Wiatr 10 kt od północ
Temperatura 39°C
Wilgotność 28%
Ciśnienie 1004 hPa
Widzialność 10 km lub więcej

METAR: YPKU 080830Z AUTO 36010KT 9999 // NCD 39/17 Q1004 RF00.0/000.0

czas: 17:04 (09:04 UTC)

Prognoza

Raport powstał 2 godziny i 49 minut temu, godzina 06:15 UTC
Prognoza ważna od 08 godzina 08 UTC do 08 godzina 20 UTC
Wiatr 10 kt od północ
Widzialność 10 km lub więcej
Brak chmur poniżej 1500 m i brak chmur cumulonimbus
Prawdopodobieństwo 30%
pomiędzy IN i TE UTC
Wiatr 20 kt z kierunków zmiennych w porywach dochodzący do 45 kt
Widzialność: 3000 m
Rozproszone chmury na wysokości 8000 ft, Cumulonimbus.
burza, deszcz

TAF: YPKU 080615Z 0808/0820 01010KT CAVOK PROB30 INTER 0808/0812 VRB20G45KT 3000 TSRA SCT080CB

Obserwacja i prognoza pogody dla ponad 4000 lotnisk (raport METAR i TAF).

Dostępne stacje oznaczono żółtymi i czerwonymi punktami na mapie.

Najedź kursorem aby zobaczyć nazwę stacji.

Kliknij aby zobaczyć obserwacje i prognozy pogody.

Aby zmienić mapę: kliknij na zielony przycisk z czarnym krzyżykiem, aby powiększyć; na zielony przycisk z myślnikiem, aby pomniejszyć; na zielone strzałki, aby przejść do map sąsiednich.


METAR-TAF: